Aviation Digital Data Service (ADDS)

Output produced by METARs form (0004 UTC 25 April 2019)
found at http://www.aviationweather.gov/metar/data/
 
METAR text: ETMN 242343Z 24014G26KT 9999 BKN019 14/10 Q1004 WHT
Conditions at: ETMN (NORDHOLZ (GER-NA, DE) observed 2343 UTC 24 April 2019
Temperature: 14.0°C (57°F)
Dewpoint: 10.0°C (50°F) [RH = 77%]
Pressure (altimeter): 29.65 inches Hg (1004.0 mb)
Winds: from the WSW (240 degrees) at 16 MPH (14 knots; 7.2 m/s)
gusting to 30 MPH (26 knots; 13.4 m/s)
Visibility: 6 or more miles (10+ km)
Ceiling: 1900 feet AGL
Clouds: broken clouds at 1900 feet AGL
Weather: no significant weather observed at this time

METAR text: ETMN 242320Z 24013G27KT 9999 FEW020 BKN120 OVC250 15/10 Q1004 BLU
Conditions at: ETMN (NORDHOLZ (GER-NA, DE) observed 2320 UTC 24 April 2019
Temperature: 15.0°C (59°F)
Dewpoint: 10.0°C (50°F) [RH = 72%]
Pressure (altimeter): 29.65 inches Hg (1004.0 mb)
Winds: from the WSW (240 degrees) at 15 MPH (13 knots; 6.7 m/s)
gusting to 31 MPH (27 knots; 13.9 m/s)
Visibility: 6 or more miles (10+ km)
Ceiling: 12000 feet AGL
Clouds: few clouds at 2000 feet AGL
broken clouds at 12000 feet AGL
overcast cloud deck at 25000 feet AGL
Weather: no significant weather observed at this time

METAR text: ETMN 242220Z 12010KT 9999 FEW120 BKN230 17/09 Q1001 BLU+
Conditions at: ETMN (NORDHOLZ (GER-NA, DE) observed 2220 UTC 24 April 2019
Temperature: 17.0°C (63°F)
Dewpoint: 9.0°C (48°F) [RH = 59%]
Pressure (altimeter): 29.56 inches Hg (1001.0 mb)
Winds: from the ESE (120 degrees) at 12 MPH (10 knots; 5.1 m/s)
Visibility: 6 or more miles (10+ km)
Ceiling: 23000 feet AGL
Clouds: few clouds at 12000 feet AGL
broken clouds at 23000 feet AGL
Weather: no significant weather observed at this time

METAR text: ETMN 242120Z 12009KT 9999 FEW120 BKN260 18/09 Q1001 BLU+
Conditions at: ETMN (NORDHOLZ (GER-NA, DE) observed 2120 UTC 24 April 2019
Temperature: 18.0°C (64°F)
Dewpoint: 9.0°C (48°F) [RH = 56%]
Pressure (altimeter): 29.56 inches Hg (1001.0 mb)
Winds: from the ESE (120 degrees) at 10 MPH (9 knots; 4.6 m/s)
Visibility: 6 or more miles (10+ km)
Ceiling: 26000 feet AGL
Clouds: few clouds at 12000 feet AGL
broken clouds at 26000 feet AGL
Weather: no significant weather observed at this time

METAR text: ETMN 242020Z 12008KT 9999 BKN120 BKN280 19/10 Q1002 BLU
Conditions at: ETMN (NORDHOLZ (GER-NA, DE) observed 2020 UTC 24 April 2019
Temperature: 19.0°C (66°F)
Dewpoint: 10.0°C (50°F) [RH = 56%]
Pressure (altimeter): 29.59 inches Hg (1002.0 mb)
Winds: from the ESE (120 degrees) at 9 MPH (8 knots; 4.1 m/s)
Visibility: 6 or more miles (10+ km)
Ceiling: 12000 feet AGL
Clouds: broken clouds at 12000 feet AGL
broken clouds at 28000 feet AGL
Weather: no significant weather observed at this time

METAR text: ETMN 241920Z 11009KT 9999 FEW040CB BKN120 BKN240 20/10 Q1002 BLU
Conditions at: ETMN (NORDHOLZ (GER-NA, DE) observed 1920 UTC 24 April 2019
Temperature: 20.0°C (68°F)
Dewpoint: 10.0°C (50°F) [RH = 53%]
Pressure (altimeter): 29.59 inches Hg (1002.0 mb)
Winds: from the ESE (110 degrees) at 10 MPH (9 knots; 4.6 m/s)
Visibility: 6 or more miles (10+ km)
Ceiling: 12000 feet AGL
Clouds: few clouds at 4000 feet AGL
broken clouds at 12000 feet AGL
broken clouds at 24000 feet AGL
Weather: no significant weather observed at this time

METAR text: ETMN 241820Z 11008KT 9999 FEW140 BKN270 21/09 Q1001 BLU+FCST CANCEL
Conditions at: ETMN (NORDHOLZ (GER-NA, DE) observed 1820 UTC 24 April 2019
Temperature: 21.0°C (70°F)
Dewpoint: 9.0°C (48°F) [RH = 46%]
Pressure (altimeter): 29.56 inches Hg (1001.0 mb)
Winds: from the ESE (110 degrees) at 9 MPH (8 knots; 4.1 m/s)
Visibility: 6 or more miles (10+ km)
Ceiling: 27000 feet AGL
Clouds: few clouds at 14000 feet AGL
broken clouds at 27000 feet AGL
Weather: no significant weather observed at this time

METAR text: ETMN 241720Z 10009KT 9999 SCT250 22/10 Q1001 BLU+BLU+
Conditions at: ETMN (NORDHOLZ (GER-NA, DE) observed 1720 UTC 24 April 2019
Temperature: 22.0°C (72°F)
Dewpoint: 10.0°C (50°F) [RH = 46%]
Pressure (altimeter): 29.56 inches Hg (1001.0 mb)
Winds: from the E (100 degrees) at 10 MPH (9 knots; 4.6 m/s)
Visibility: 6 or more miles (10+ km)
Ceiling: at least 12,000 feet AGL
Clouds: scattered clouds at 25000 feet AGL
Weather: no significant weather observed at this time

METAR text: ETMN 241620Z 11009KT 9999 FEW120 BKN250 24/10 Q1001 BLU+BLU+
Conditions at: ETMN (NORDHOLZ (GER-NA, DE) observed 1620 UTC 24 April 2019
Temperature: 24.0°C (75°F)
Dewpoint: 10.0°C (50°F) [RH = 41%]
Pressure (altimeter): 29.56 inches Hg (1001.0 mb)
Winds: from the ESE (110 degrees) at 10 MPH (9 knots; 4.6 m/s)
Visibility: 6 or more miles (10+ km)
Ceiling: 25000 feet AGL
Clouds: few clouds at 12000 feet AGL
broken clouds at 25000 feet AGL
Weather: no significant weather observed at this time

METAR text: ETMN 241520Z 10011KT 9999 FEW120 SCT260 23/10 Q1002 BLU+BLU+
Conditions at: ETMN (NORDHOLZ (GER-NA, DE) observed 1520 UTC 24 April 2019
Temperature: 23.0°C (73°F)
Dewpoint: 10.0°C (50°F) [RH = 44%]
Pressure (altimeter): 29.59 inches Hg (1002.0 mb)
Winds: from the E (100 degrees) at 13 MPH (11 knots; 5.7 m/s)
Visibility: 6 or more miles (10+ km)
Ceiling: at least 12,000 feet AGL
Clouds: few clouds at 12000 feet AGL
scattered clouds at 26000 feet AGL
Weather: no significant weather observed at this time

METAR text: ETMN 241420Z 13009KT 9999 FEW080 SCT120 24/09 Q1002 BLU+BLU+
Conditions at: ETMN (NORDHOLZ (GER-NA, DE) observed 1420 UTC 24 April 2019
Temperature: 24.0°C (75°F)
Dewpoint: 9.0°C (48°F) [RH = 38%]
Pressure (altimeter): 29.59 inches Hg (1002.0 mb)
Winds: from the SE (130 degrees) at 10 MPH (9 knots; 4.6 m/s)
Visibility: 6 or more miles (10+ km)
Ceiling: at least 12,000 feet AGL
Clouds: few clouds at 8000 feet AGL
scattered clouds at 12000 feet AGL
Weather: no significant weather observed at this time

METAR text: ETMN 241320Z 14012KT 9999 FEW040 SCT130 22/09 Q1002 BLU+BLU
Conditions at: ETMN (NORDHOLZ (GER-NA, DE) observed 1320 UTC 24 April 2019
Temperature: 22.0°C (72°F)
Dewpoint: 9.0°C (48°F) [RH = 43%]
Pressure (altimeter): 29.59 inches Hg (1002.0 mb)
Winds: from the SE (140 degrees) at 14 MPH (12 knots; 6.2 m/s)
Visibility: 6 or more miles (10+ km)
Ceiling: at least 12,000 feet AGL
Clouds: few clouds at 4000 feet AGL
scattered clouds at 13000 feet AGL
Weather: no significant weather observed at this time

METAR text: ETMN 241220Z 14011KT 9999 FEW035 BKN110 21/10 Q1003 BLU BLU
Conditions at: ETMN (NORDHOLZ (GER-NA, DE) observed 1220 UTC 24 April 2019
Temperature: 21.0°C (70°F)
Dewpoint: 10.0°C (50°F) [RH = 49%]
Pressure (altimeter): 29.62 inches Hg (1003.0 mb)
Winds: from the SE (140 degrees) at 13 MPH (11 knots; 5.7 m/s)
Visibility: 6 or more miles (10+ km)
Ceiling: 11000 feet AGL
Clouds: few clouds at 3500 feet AGL
broken clouds at 11000 feet AGL
Weather: no significant weather observed at this time

METAR text: ETMN 241120Z 13013KT 9999 FEW035 SCT130 20/10 Q1003 BLU+BLU
Conditions at: ETMN (NORDHOLZ (GER-NA, DE) observed 1120 UTC 24 April 2019
Temperature: 20.0°C (68°F)
Dewpoint: 10.0°C (50°F) [RH = 53%]
Pressure (altimeter): 29.62 inches Hg (1003.0 mb)
Winds: from the SE (130 degrees) at 15 MPH (13 knots; 6.7 m/s)
Visibility: 6 or more miles (10+ km)
Ceiling: at least 12,000 feet AGL
Clouds: few clouds at 3500 feet AGL
scattered clouds at 13000 feet AGL
Weather: no significant weather observed at this time

METAR text: ETMN 241020Z 13011KT 9999 FEW035 SCT090 BKN150 18/10 Q1002 BLU BLU
Conditions at: ETMN (NORDHOLZ (GER-NA, DE) observed 1020 UTC 24 April 2019
Temperature: 18.0°C (64°F)
Dewpoint: 10.0°C (50°F) [RH = 59%]
Pressure (altimeter): 29.59 inches Hg (1002.0 mb)
Winds: from the SE (130 degrees) at 13 MPH (11 knots; 5.7 m/s)
Visibility: 6 or more miles (10+ km)
Ceiling: 15000 feet AGL
Clouds: few clouds at 3500 feet AGL
scattered clouds at 9000 feet AGL
broken clouds at 15000 feet AGL
Weather: no significant weather observed at this time

METAR text: ETMN 240920Z 13014KT 9999 FEW030 SCT140 BKN180 16/10 Q1002 BLU BLU
Conditions at: ETMN (NORDHOLZ (GER-NA, DE) observed 0920 UTC 24 April 2019
Temperature: 16.0°C (61°F)
Dewpoint: 10.0°C (50°F) [RH = 68%]
Pressure (altimeter): 29.59 inches Hg (1002.0 mb)
Winds: from the SE (130 degrees) at 16 MPH (14 knots; 7.2 m/s)
Visibility: 6 or more miles (10+ km)
Ceiling: 18000 feet AGL
Clouds: few clouds at 3000 feet AGL
scattered clouds at 14000 feet AGL
broken clouds at 18000 feet AGL
Weather: no significant weather observed at this time

METAR text: ETMN 240820Z 14014KT 9999 SCT060 BKN120 13/09 Q1002 BLU BLU
Conditions at: ETMN (NORDHOLZ (GER-NA, DE) observed 0820 UTC 24 April 2019
Temperature: 13.0°C (55°F)
Dewpoint: 9.0°C (48°F) [RH = 77%]
Pressure (altimeter): 29.59 inches Hg (1002.0 mb)
Winds: from the SE (140 degrees) at 16 MPH (14 knots; 7.2 m/s)
Visibility: 6 or more miles (10+ km)
Ceiling: 12000 feet AGL
Clouds: scattered clouds at 6000 feet AGL
broken clouds at 12000 feet AGL
Weather: no significant weather observed at this time

METAR text: ETMN 240720Z 14013KT 9999 -RA BKN060 OVC080 12/08 Q1002 BLU BLU
Conditions at: ETMN (NORDHOLZ (GER-NA, DE) observed 0720 UTC 24 April 2019
Temperature: 12.0°C (54°F)
Dewpoint: 8.0°C (46°F) [RH = 76%]
Pressure (altimeter): 29.59 inches Hg (1002.0 mb)
Winds: from the SE (140 degrees) at 15 MPH (13 knots; 6.7 m/s)
Visibility: 6 or more miles (10+ km)
Ceiling: 6000 feet AGL
Clouds: broken clouds at 6000 feet AGL
overcast cloud deck at 8000 feet AGL
Weather: -RA  (light rain)

METAR text: ETMN 240620Z 13012KT 9999 BKN080 OVC140 13/07 Q1001 BLU BLU
Conditions at: ETMN (NORDHOLZ (GER-NA, DE) observed 0620 UTC 24 April 2019
Temperature: 13.0°C (55°F)
Dewpoint: 7.0°C (45°F) [RH = 67%]
Pressure (altimeter): 29.56 inches Hg (1001.0 mb)
Winds: from the SE (130 degrees) at 14 MPH (12 knots; 6.2 m/s)
Visibility: 6 or more miles (10+ km)
Ceiling: 8000 feet AGL
Clouds: broken clouds at 8000 feet AGL
overcast cloud deck at 14000 feet AGL
Weather: no significant weather observed at this time

METAR text: ETMN 240520Z 13011KT 9999 BKN100 12/07 Q1001 BLU BLU
Conditions at: ETMN (NORDHOLZ (GER-NA, DE) observed 0520 UTC 24 April 2019
Temperature: 12.0°C (54°F)
Dewpoint: 7.0°C (45°F) [RH = 71%]
Pressure (altimeter): 29.56 inches Hg (1001.0 mb)
Winds: from the SE (130 degrees) at 13 MPH (11 knots; 5.7 m/s)
Visibility: 6 or more miles (10+ km)
Ceiling: 10000 feet AGL
Clouds: broken clouds at 10000 feet AGL
Weather: no significant weather observed at this time

METAR text: ETMN 240420Z 12012KT 9999 SCT070 BKN110 12/07 Q1001 BLU BLU
Conditions at: ETMN (NORDHOLZ (GER-NA, DE) observed 0420 UTC 24 April 2019
Temperature: 12.0°C (54°F)
Dewpoint: 7.0°C (45°F) [RH = 71%]
Pressure (altimeter): 29.56 inches Hg (1001.0 mb)
Winds: from the ESE (120 degrees) at 14 MPH (12 knots; 6.2 m/s)
Visibility: 6 or more miles (10+ km)
Ceiling: 11000 feet AGL
Clouds: scattered clouds at 7000 feet AGL
broken clouds at 11000 feet AGL
Weather: no significant weather observed at this time

METAR text: ETMN 240320Z 12012KT 9999 -DZ BKN070 12/07 Q1000 BLU
Conditions at: ETMN (NORDHOLZ (GER-NA, DE) observed 0320 UTC 24 April 2019
Temperature: 12.0°C (54°F)
Dewpoint: 7.0°C (45°F) [RH = 71%]
Pressure (altimeter): 29.53 inches Hg (1000.0 mb)
Winds: from the ESE (120 degrees) at 14 MPH (12 knots; 6.2 m/s)
Visibility: 6 or more miles (10+ km)
Ceiling: 7000 feet AGL
Clouds: broken clouds at 7000 feet AGL
Weather: -DZ  (light drizzle)

METAR text: ETMN 240220Z 11010KT 9999 BKN080 12/06 Q1001 BLU
Conditions at: ETMN (NORDHOLZ (GER-NA, DE) observed 0220 UTC 24 April 2019
Temperature: 12.0°C (54°F)
Dewpoint: 6.0°C (43°F) [RH = 67%]
Pressure (altimeter): 29.56 inches Hg (1001.0 mb)
Winds: from the ESE (110 degrees) at 12 MPH (10 knots; 5.1 m/s)
Visibility: 6 or more miles (10+ km)
Ceiling: 8000 feet AGL
Clouds: broken clouds at 8000 feet AGL
Weather: no significant weather observed at this time

METAR text: ETMN 240120Z 11011KT 9999 BKN100 13/06 Q1001 BLU
Conditions at: ETMN (NORDHOLZ (GER-NA, DE) observed 0120 UTC 24 April 2019
Temperature: 13.0°C (55°F)
Dewpoint: 6.0°C (43°F) [RH = 62%]
Pressure (altimeter): 29.56 inches Hg (1001.0 mb)
Winds: from the ESE (110 degrees) at 13 MPH (11 knots; 5.7 m/s)
Visibility: 6 or more miles (10+ km)
Ceiling: 10000 feet AGL
Clouds: broken clouds at 10000 feet AGL
Weather: no significant weather observed at this time

METAR text: ETMN 240020Z 10010KT 9999 BKN060 12/07 Q1001 BLU
Conditions at: ETMN (NORDHOLZ (GER-NA, DE) observed 0020 UTC 24 April 2019
Temperature: 12.0°C (54°F)
Dewpoint: 7.0°C (45°F) [RH = 71%]
Pressure (altimeter): 29.56 inches Hg (1001.0 mb)
Winds: from the E (100 degrees) at 12 MPH (10 knots; 5.1 m/s)
Visibility: 6 or more miles (10+ km)
Ceiling: 6000 feet AGL
Clouds: broken clouds at 6000 feet AGL
Weather: no significant weather observed at this time

METAR text: ETMN 232320Z 10010KT 9999 FEW060 13/07 Q1002 BLU+
Conditions at: ETMN (NORDHOLZ (GER-NA, DE) observed 2320 UTC 23 April 2019
Temperature: 13.0°C (55°F)
Dewpoint: 7.0°C (45°F) [RH = 67%]
Pressure (altimeter): 29.59 inches Hg (1002.0 mb)
Winds: from the E (100 degrees) at 12 MPH (10 knots; 5.1 m/s)
Visibility: 6 or more miles (10+ km)
Ceiling: at least 12,000 feet AGL
Clouds: few clouds at 6000 feet AGL
Weather: no significant weather observed at this time

METAR text: ETMN 232220Z 11010KT 9999 14/07 Q1002 BLU+
Conditions at: ETMN (NORDHOLZ (GER-NA, DE) observed 2220 UTC 23 April 2019
Temperature: 14.0°C (57°F)
Dewpoint: 7.0°C (45°F) [RH = 63%]
Pressure (altimeter): 29.59 inches Hg (1002.0 mb)
Winds: from the ESE (110 degrees) at 12 MPH (10 knots; 5.1 m/s)
Visibility: 6 or more miles (10+ km)
Ceiling: unknown
Clouds: missing
Weather: no significant weather observed at this time

METAR text: ETMN 232120Z 11010KT 9999 15/06 Q1003 BLU+
Conditions at: ETMN (NORDHOLZ (GER-NA, DE) observed 2120 UTC 23 April 2019
Temperature: 15.0°C (59°F)
Dewpoint: 6.0°C (43°F) [RH = 55%]
Pressure (altimeter): 29.62 inches Hg (1003.0 mb)
Winds: from the ESE (110 degrees) at 12 MPH (10 knots; 5.1 m/s)
Visibility: 6 or more miles (10+ km)
Ceiling: unknown
Clouds: missing
Weather: no significant weather observed at this time

METAR text: ETMN 232020Z 11011KT 9999 15/05 Q1003 BLU+
Conditions at: ETMN (NORDHOLZ (GER-NA, DE) observed 2020 UTC 23 April 2019
Temperature: 15.0°C (59°F)
Dewpoint: 5.0°C (41°F) [RH = 51%]
Pressure (altimeter): 29.62 inches Hg (1003.0 mb)
Winds: from the ESE (110 degrees) at 13 MPH (11 knots; 5.7 m/s)
Visibility: 6 or more miles (10+ km)
Ceiling: unknown
Clouds: missing
Weather: no significant weather observed at this time

METAR text: ETMN 231920Z 11011KT 9999 FEW060 16/04 Q1003 BLU+FCST CANCEL
Conditions at: ETMN (NORDHOLZ (GER-NA, DE) observed 1920 UTC 23 April 2019
Temperature: 16.0°C (61°F)
Dewpoint: 4.0°C (39°F) [RH = 45%]
Pressure (altimeter): 29.62 inches Hg (1003.0 mb)
Winds: from the ESE (110 degrees) at 13 MPH (11 knots; 5.7 m/s)
Visibility: 6 or more miles (10+ km)
Ceiling: at least 12,000 feet AGL
Clouds: few clouds at 6000 feet AGL
Weather: no significant weather observed at this time

METAR text: ETMN 231820Z 11014G24KT 9999 FEW060 17/04 Q1003 BLU+BLU+
Conditions at: ETMN (NORDHOLZ (GER-NA, DE) observed 1820 UTC 23 April 2019
Temperature: 17.0°C (63°F)
Dewpoint: 4.0°C (39°F) [RH = 42%]
Pressure (altimeter): 29.62 inches Hg (1003.0 mb)
Winds: from the ESE (110 degrees) at 16 MPH (14 knots; 7.2 m/s)
gusting to 28 MPH (24 knots; 12.3 m/s)
Visibility: 6 or more miles (10+ km)
Ceiling: at least 12,000 feet AGL
Clouds: few clouds at 6000 feet AGL
Weather: no significant weather observed at this time

METAR text: ETMN 231720Z 11014G25KT 9999 FEW060 19/04 Q1002 BLU+BLU+
Conditions at: ETMN (NORDHOLZ (GER-NA, DE) observed 1720 UTC 23 April 2019
Temperature: 19.0°C (66°F)
Dewpoint: 4.0°C (39°F) [RH = 37%]
Pressure (altimeter): 29.59 inches Hg (1002.0 mb)
Winds: from the ESE (110 degrees) at 16 MPH (14 knots; 7.2 m/s)
gusting to 29 MPH (25 knots; 12.9 m/s)
Visibility: 6 or more miles (10+ km)
Ceiling: at least 12,000 feet AGL
Clouds: few clouds at 6000 feet AGL
Weather: no significant weather observed at this time

METAR text: ETMN 231620Z 10014G25KT 9999 19/04 Q1003 BLU+BLU+
Conditions at: ETMN (NORDHOLZ (GER-NA, DE) observed 1620 UTC 23 April 2019
Temperature: 19.0°C (66°F)
Dewpoint: 4.0°C (39°F) [RH = 37%]
Pressure (altimeter): 29.62 inches Hg (1003.0 mb)
Winds: from the E (100 degrees) at 16 MPH (14 knots; 7.2 m/s)
gusting to 29 MPH (25 knots; 12.9 m/s)
Visibility: 6 or more miles (10+ km)
Ceiling: unknown
Clouds: missing
Weather: no significant weather observed at this time

METAR text: ETMN 231520Z 10020G30KT 9999 VCBLSA 19/03 Q1003 BLU+BLU+
Conditions at: ETMN (NORDHOLZ (GER-NA, DE) observed 1520 UTC 23 April 2019
Temperature: 19.0°C (66°F)
Dewpoint: 3.0°C (37°F) [RH = 34%]
Pressure (altimeter): 29.62 inches Hg (1003.0 mb)
Winds: from the E (100 degrees) at 23 MPH (20 knots; 10.3 m/s)
gusting to 34 MPH (30 knots; 15.4 m/s)
Visibility: 6 or more miles (10+ km)
Ceiling: unknown
Clouds: missing
Weather: VCBLSA  (blowing sand in vicinity)

METAR text: ETMN 231420Z 10021G31KT 9999 VCBLSA 19/02 Q1004 BLU+BLU+
Conditions at: ETMN (NORDHOLZ (GER-NA, DE) observed 1420 UTC 23 April 2019
Temperature: 19.0°C (66°F)
Dewpoint: 2.0°C (36°F) [RH = 32%]
Pressure (altimeter): 29.65 inches Hg (1004.0 mb)
Winds: from the E (100 degrees) at 24 MPH (21 knots; 10.8 m/s)
gusting to 36 MPH (31 knots; 15.9 m/s)
Visibility: 6 or more miles (10+ km)
Ceiling: unknown
Clouds: missing
Weather: VCBLSA  (blowing sand in vicinity)

METAR text: ETMN 231326Z 10021G35KT 9999 19/03 Q1004 BLU+BLU+
Conditions at: ETMN (NORDHOLZ (GER-NA, DE) observed 1326 UTC 23 April 2019
Temperature: 19.0°C (66°F)
Dewpoint: 3.0°C (37°F) [RH = 34%]
Pressure (altimeter): 29.65 inches Hg (1004.0 mb)
Winds: from the E (100 degrees) at 24 MPH (21 knots; 10.8 m/s)
gusting to 40 MPH (35 knots; 18.0 m/s)
Visibility: 6 or more miles (10+ km)
Ceiling: unknown
Clouds: missing
Weather: no significant weather observed at this time

METAR text: ETMN 231320Z 10020G30KT 9999 19/03 Q1004 BLU+BLU+
Conditions at: ETMN (NORDHOLZ (GER-NA, DE) observed 1320 UTC 23 April 2019
Temperature: 19.0°C (66°F)
Dewpoint: 3.0°C (37°F) [RH = 34%]
Pressure (altimeter): 29.65 inches Hg (1004.0 mb)
Winds: from the E (100 degrees) at 23 MPH (20 knots; 10.3 m/s)
gusting to 34 MPH (30 knots; 15.4 m/s)
Visibility: 6 or more miles (10+ km)
Ceiling: unknown
Clouds: missing
Weather: no significant weather observed at this time

METAR text: ETMN 231220Z 10020G33KT 9999 19/02 Q1005 BLU+BLU+
Conditions at: ETMN (NORDHOLZ (GER-NA, DE) observed 1220 UTC 23 April 2019
Temperature: 19.0°C (66°F)
Dewpoint: 2.0°C (36°F) [RH = 32%]
Pressure (altimeter): 29.68 inches Hg (1005.0 mb)
Winds: from the E (100 degrees) at 23 MPH (20 knots; 10.3 m/s)
gusting to 38 MPH (33 knots; 17.0 m/s)
Visibility: 6 or more miles (10+ km)
Ceiling: unknown
Clouds: missing
Weather: no significant weather observed at this time

Forecast for: AMD
Text: TAF AMD ETMN 241803Z 2417/2502 15012KT 9999 NSW SCT030 SCT300
Forecast period: 1700 UTC 24 April 2019 to 0200 UTC 25 April 2019
Forecast type: FROM: standard forecast or significant change
Winds: from the SSE (150 degrees) at 14 MPH (12 knots; 6.2 m/s)
Visibility: 6 or more miles 10+ km)
Ceiling: at least 12,000 feet AGL
Clouds: scattered clouds at 3000 feet AGL
scattered clouds at 30000 feet AGL
Weather: NSW  (no significant weather)
Text: PROB30 2422/2502 VRB15G30KT 3000 TSRA SCT015 BKN040CB CANCEL 1820
Forecast period: 2200 UTC 24 April 2019 to 0200 UTC 25 April 2019
Forecast type: PROBABLE: 30 percent likelihood of the following during this time
Winds: variable direction winds at 17 MPH (15 knots; 7.7 m/s)
gusting to 34 MPH (30 knots; 15.4 m/s)
Visibility: 1.86 miles (2.99 km)
Ceiling: 4000 feet AGL
Clouds: scattered clouds at 1500 feet AGL
broken clouds at 4000 feet AGL
Weather: TSRA  (rain associated with thunderstorm(s))